Kure Harbour — 3EZL4 — position and weather

sailwx.info

Track history (hours):
 
Tides and Currents Weather Stations Pressure Air Temp Water Temp Dewpoint Dewpoint Depression Visibility Wind Speed Wind Dir Waves Ship Positions

Kure Harbour

Last reported at 2018-Jan-21 09:56 UTC. Time now 2018-Feb-22 05:23 UTC.
Position S 30°33' E 030°48'.
Warning: this ship's position is 31 days out of date.

Length 190 m; draft 6.5 m.

Type: Cargo ship. MMSI: 357538000.

Date/timePositionNaut miles runAvg speedWind from/ knotsBaromVisibWave heightAir tempDewpointWater temp
2018-Jan-21 09:56S 30°33' E 030°48'614.2
2018-Jan-21 09:28S 30°27' E 030°51'613.8
2018-Jan-21 09:00S 30°22' E 030°55'713.8
2018-Jan-21 08:30S 30°16' E 030°59'713.8
2018-Jan-21 08:01S 30°10' E 031°02'714.1
2018-Jan-21 07:30S 30°04' E 031°07'714.1
2018-Jan-21 07:00S 29°60' E 031°14'714.1
2018-Jan-21 06:31S 29°54' E 031°19'714.5
2018-Jan-21 06:00S 29°47' E 031°22'714.2
2018-Jan-21 05:30S 29°43' E 031°28'714.5
2018-Jan-21 05:01S 29°38' E 031°34'714.4
2018-Jan-21 04:30S 29°32' E 031°40'714.2
2018-Jan-21 04:01S 29°27' E 031°46'713.9
2018-Jan-21 03:31S 29°22' E 031°51'714.1
2018-Jan-21 03:01S 29°17' E 031°57'1015.9
2018-Jan-21 02:21S 29°10' E 032°06'618.1
2018-Jan-21 02:00S 29°06' E 032°11'1317.6
2018-Jan-21 01:15S 28°55' E 032°21'917.5
2018-Jan-21 00:42S 28°47' E 032°26'2716.7
2018-Jan-20 23:04S 28°26' E 032°46'316.4
2018-Jan-20 22:55S 28°24' E 032°48'  
Track history (hours):
 
Tides and Currents Weather Stations Pressure Air Temp Water Temp Dewpoint Dewpoint Depression Visibility Wind Speed Wind Dir Waves Ship Positions

Kure Harbour

Last reported at 2018-Jan-21 09:56 UTC. Time now 2018-Feb-22 05:23 UTC.
Position S 30°33' E 030°48'.
Warning: this ship's position is 31 days out of date.

Length 190 m; draft 6.5 m.

Type: Cargo ship. MMSI: 357538000.

Date/timePositionNaut miles runAvg speedWind from/ knotsBaromVisibWave heightAir tempDewpointWater temp
2018-Jan-21 09:56S 30°33' E 030°48'614.2
2018-Jan-21 09:28S 30°27' E 030°51'613.8
2018-Jan-21 09:00S 30°22' E 030°55'713.8
2018-Jan-21 08:30S 30°16' E 030°59'713.8
2018-Jan-21 08:01S 30°10' E 031°02'714.1
2018-Jan-21 07:30S 30°04' E 031°07'714.1
2018-Jan-21 07:00S 29°60' E 031°14'714.1
2018-Jan-21 06:31S 29°54' E 031°19'714.5
2018-Jan-21 06:00S 29°47' E 031°22'714.2
2018-Jan-21 05:30S 29°43' E 031°28'714.5
2018-Jan-21 05:01S 29°38' E 031°34'714.4
2018-Jan-21 04:30S 29°32' E 031°40'714.2
2018-Jan-21 04:01S 29°27' E 031°46'713.9
2018-Jan-21 03:31S 29°22' E 031°51'714.1
2018-Jan-21 03:01S 29°17' E 031°57'1015.9
2018-Jan-21 02:21S 29°10' E 032°06'618.1
2018-Jan-21 02:00S 29°06' E 032°11'1317.6
2018-Jan-21 01:15S 28°55' E 032°21'917.5
2018-Jan-21 00:42S 28°47' E 032°26'2716.7
2018-Jan-20 23:04S 28°26' E 032°46'316.4
2018-Jan-20 22:55S 28°24' E 032°48'  

Dump ship's entire track history